createdAt,value
2017-11-19T00:01:45.462Z,1007.50
2017-11-19T00:02:46.609Z,1007.55
2017-11-19T00:04:38.183Z,1007.69
2017-11-19T00:05:40.244Z,1007.75
2017-11-19T00:07:32.843Z,1007.79
2017-11-19T00:08:33.758Z,1007.76
2017-11-19T00:10:26.197Z,1007.70
2017-11-19T00:11:27.324Z,1007.74
2017-11-19T00:13:19.879Z,1007.74
2017-11-19T00:14:20.862Z,1007.70
2017-11-19T00:16:14.435Z,1007.69
2017-11-19T00:17:13.534Z,1007.67
2017-11-19T00:19:06.929Z,1007.59
2017-11-19T00:20:07.987Z,1007.59
2017-11-19T00:21:58.658Z,1007.66
2017-11-19T00:23:01.438Z,1007.68
2017-11-19T00:24:54.131Z,1007.71
2017-11-19T00:25:55.057Z,1007.72
2017-11-19T00:27:47.699Z,1007.72
2017-11-19T00:28:48.652Z,1007.68
2017-11-19T00:30:42.164Z,1007.65
2017-11-19T00:31:42.175Z,1007.62
2017-11-19T00:33:34.911Z,1007.63
2017-11-19T00:34:35.804Z,1007.68
2017-11-19T00:36:29.291Z,1007.66
2017-11-19T00:37:29.326Z,1007.64
2017-11-19T00:39:20.057Z,1007.61
2017-11-19T00:40:22.890Z,1007.58
2017-11-19T00:42:16.448Z,1007.58
2017-11-19T00:43:16.456Z,1007.57
2017-11-19T00:45:09.072Z,1007.55
2017-11-19T00:46:10.006Z,1007.49
2017-11-19T00:48:02.494Z,1007.51
2017-11-19T00:49:03.552Z,1007.49
2017-11-19T00:50:56.166Z,1007.47
2017-11-19T00:51:57.088Z,1007.48
2017-11-19T00:53:50.572Z,1007.53
2017-11-19T00:54:51.558Z,1007.58
2017-11-19T00:56:43.322Z,1007.57
2017-11-19T00:57:44.268Z,1007.57
2017-11-19T00:59:37.733Z,1007.52
2017-11-19T01:00:37.733Z,1007.55
2017-11-19T01:02:30.235Z,1007.54
2017-11-19T01:03:31.317Z,1007.52
2017-11-19T01:05:24.887Z,1007.50
2017-11-19T01:06:24.846Z,1007.48
2017-11-19T01:08:18.991Z,1007.50
2017-11-19T01:09:18.411Z,1007.53
2017-11-19T01:11:11.970Z,1007.31
2017-11-19T01:12:11.965Z,1007.35
2017-11-19T01:14:04.602Z,1007.38
2017-11-19T01:15:05.525Z,1007.37
2017-11-19T01:16:59.068Z,1007.43
2017-11-19T01:17:59.080Z,1007.38
2017-11-19T01:19:51.675Z,1007.42
2017-11-19T01:20:52.630Z,1007.40
2017-11-19T01:22:46.256Z,1007.37
2017-11-19T01:23:46.223Z,1007.39
2017-11-19T01:25:38.831Z,1007.42
2017-11-19T01:49:20.610Z,1007.43
2017-11-19T01:50:21.673Z,1007.43
2017-11-19T01:52:15.275Z,1007.38
2017-11-19T01:53:15.241Z,1007.40
2017-11-19T01:55:09.400Z,1007.36
2017-11-19T01:56:08.831Z,1007.39
2017-11-19T01:58:02.366Z,1007.38
2017-11-19T01:59:02.379Z,1007.37
2017-11-19T02:00:53.437Z,1007.36
2017-11-19T02:01:55.073Z,1007.34
2017-11-19T02:20:41.343Z,1007.36
2017-11-19T02:21:42.201Z,1007.33
2017-11-19T02:23:35.759Z,1007.32
2017-11-19T02:24:35.795Z,1007.31
2017-11-19T02:26:28.497Z,1007.27
2017-11-19T02:27:29.317Z,1007.27
2017-11-19T02:29:22.900Z,1007.25
2017-11-19T02:30:22.949Z,1007.24
2017-11-19T02:32:15.072Z,1007.26
2017-11-19T02:33:16.428Z,1007.34
2017-11-19T02:35:09.947Z,1007.33
2017-11-19T02:36:10.057Z,1007.34
2017-11-19T02:38:02.604Z,1007.35
2017-11-19T02:39:03.565Z,1007.32
2017-11-19T02:40:57.141Z,1007.36
2017-11-19T02:41:57.136Z,1007.44
2017-11-19T02:43:49.758Z,1007.41
2017-11-19T02:44:50.699Z,1007.42
2017-11-19T02:46:44.231Z,1007.43
2017-11-19T02:47:44.243Z,1007.45
2017-11-19T02:49:36.845Z,1007.47
2017-11-19T02:50:37.761Z,1007.50
2017-11-19T02:52:31.327Z,1007.52
2017-11-19T02:53:31.352Z,1007.49
2017-11-19T02:55:23.981Z,1007.50
2017-11-19T02:56:24.894Z,1007.45
2017-11-19T02:58:18.417Z,1007.47
2017-11-19T02:59:18.442Z,1007.47
2017-11-19T03:01:11.109Z,1007.52
2017-11-19T03:02:09.962Z,1007.50
2017-11-19T03:04:05.592Z,1007.53
2017-11-19T03:05:05.568Z,1007.53
2017-11-19T03:07:00.495Z,1007.52
2017-11-19T03:07:59.157Z,1007.52
2017-11-19T03:09:52.701Z,1007.54
2017-11-19T03:10:52.723Z,1007.58
2017-11-19T03:12:45.130Z,1007.56
2017-11-19T03:13:46.221Z,1007.57
2017-11-19T03:15:38.209Z,1007.56
2017-11-19T03:16:39.774Z,1007.56
2017-11-19T03:18:32.289Z,1007.52
2017-11-19T03:19:32.990Z,1007.54
2017-11-19T03:21:26.876Z,1007.48
2017-11-19T03:22:26.893Z,1007.48
2017-11-19T03:24:19.387Z,1007.49
2017-11-19T03:25:20.474Z,1007.49
2017-11-19T03:27:14.009Z,1007.50
2017-11-19T03:28:13.999Z,1007.49
2017-11-19T03:30:06.693Z,1007.48
2017-11-19T03:31:07.545Z,1007.46
2017-11-19T03:33:01.184Z,1007.46
2017-11-19T03:34:01.128Z,1007.45
2017-11-19T03:35:53.735Z,1007.42
2017-11-19T03:36:52.042Z,1007.45
2017-11-19T03:38:48.256Z,1007.43
2017-11-19T03:39:48.251Z,1007.45
2017-11-19T03:41:40.947Z,1007.48
2017-11-19T03:42:41.779Z,1007.47
2017-11-19T03:44:35.372Z,1007.46
2017-11-19T03:45:34.394Z,1007.48
2017-11-19T03:47:27.673Z,1007.44
2017-11-19T03:48:28.940Z,1007.42
2017-11-19T03:50:22.437Z,1007.41
2017-11-19T03:51:21.518Z,1007.37
2017-11-19T03:53:15.082Z,1007.38
2017-11-19T03:54:13.367Z,1007.39
2017-11-19T03:56:09.589Z,1007.40
2017-11-19T03:57:09.538Z,1007.42
2017-11-19T03:59:02.356Z,1007.44
2017-11-19T04:00:03.144Z,1007.43
2017-11-19T04:01:56.705Z,1007.45
2017-11-19T04:02:57.544Z,1007.50
2017-11-19T04:04:49.158Z,1007.48
2017-11-19T04:05:50.360Z,1007.52
2017-11-19T04:07:43.851Z,1007.51
2017-11-19T04:08:43.780Z,1007.48
2017-11-19T04:10:36.475Z,1007.55
2017-11-19T04:11:34.673Z,1007.48
2017-11-19T04:13:30.914Z,1007.51
2017-11-19T04:14:30.888Z,1007.50
2017-11-19T04:16:23.436Z,1007.53
2017-11-19T04:17:24.479Z,1007.53
2017-11-19T04:19:17.424Z,1007.56
2017-11-19T04:20:18.028Z,1007.56
2017-11-19T04:22:10.503Z,1007.61
2017-11-19T04:23:11.598Z,1007.60
2017-11-19T04:25:05.154Z,1007.63
2017-11-19T04:26:04.118Z,1007.63
2017-11-19T04:27:57.805Z,1007.65
2017-11-19T04:28:58.672Z,1007.61
2017-11-19T04:30:52.224Z,1007.57
2017-11-19T04:31:52.225Z,1007.56
2017-11-19T04:33:44.975Z,1007.52
2017-11-19T04:34:45.821Z,1007.51
2017-11-19T04:36:39.337Z,1007.44
2017-11-19T04:37:39.341Z,1007.47
2017-11-19T04:39:31.900Z,1007.49
2017-11-19T04:40:32.039Z,1007.48
2017-11-19T04:42:26.447Z,1007.46
2017-11-19T04:43:25.540Z,1007.51
2017-11-19T04:45:18.958Z,1007.48
2017-11-19T04:46:20.006Z,1007.44
2017-11-19T04:48:13.572Z,1007.50
2017-11-19T04:49:13.562Z,1007.51
2017-11-19T04:51:07.008Z,1007.52
2017-11-19T04:52:06.362Z,1007.54
2017-11-19T04:54:00.670Z,1007.59
2017-11-19T04:55:00.676Z,1007.63
2017-11-19T04:56:53.165Z,1007.59
2017-11-19T04:57:54.242Z,1007.61
2017-11-19T04:59:47.784Z,1007.58
2017-11-19T05:00:47.784Z,1007.62
2017-11-19T05:02:40.277Z,1007.72
2017-11-19T05:03:41.341Z,1007.75
2017-11-19T05:05:33.945Z,1007.73
2017-11-19T05:06:34.896Z,1007.74
2017-11-19T05:08:27.533Z,1007.76
2017-11-19T05:09:28.445Z,1007.78
2017-11-19T05:11:19.781Z,1007.79
2017-11-19T05:12:22.031Z,1007.73
2017-11-19T05:14:14.584Z,1007.71
2017-11-19T05:15:15.565Z,1007.71
2017-11-19T05:17:09.131Z,1007.62
2017-11-19T05:18:09.195Z,1007.67
2017-11-19T05:20:01.610Z,1007.72
2017-11-19T05:21:02.681Z,1007.68
2017-11-19T05:22:56.239Z,1007.73
2017-11-19T05:23:55.237Z,1007.74
2017-11-19T05:25:46.973Z,1007.77
2017-11-19T05:26:49.803Z,1007.77
2017-11-19T05:28:43.334Z,1007.84
2017-11-19T05:29:44.336Z,1007.83
2017-11-19T05:31:35.100Z,1007.91
2017-11-19T05:32:38.798Z,1007.91
2017-11-19T05:34:31.451Z,1007.89
2017-11-19T05:35:31.465Z,1007.92
2017-11-19T05:37:24.002Z,1008.00
2017-11-19T05:38:25.025Z,1007.98
2017-11-19T05:40:18.565Z,1007.95
2017-11-19T05:41:18.592Z,1008.04
2017-11-19T05:43:11.028Z,1008.05
2017-11-19T05:44:12.125Z,1008.05
2017-11-19T05:46:07.676Z,1008.04
2017-11-19T05:47:05.818Z,1007.98
2017-11-19T05:48:57.959Z,1008.01
2017-11-19T05:49:59.242Z,1008.01
2017-11-19T05:51:50.996Z,1007.99
2017-11-19T05:52:52.838Z,1008.00
2017-11-19T05:54:44.109Z,1007.97
2017-11-19T05:55:46.370Z,1007.98
2017-11-19T05:57:38.295Z,1007.95
2017-11-19T05:58:39.918Z,1007.96
2017-11-19T06:00:32.417Z,1008.00
2017-11-19T06:01:33.527Z,1008.01
2017-11-19T06:03:24.129Z,1008.05
2017-11-19T06:04:27.074Z,1008.08
2017-11-19T06:06:19.711Z,1008.12
2017-11-19T06:07:20.604Z,1008.13
2017-11-19T06:09:14.206Z,1008.05
2017-11-19T06:10:14.206Z,1008.01
2017-11-19T06:12:06.079Z,1008.03
2017-11-19T06:13:07.718Z,1008.07
2017-11-19T06:14:58.370Z,1008.13
2017-11-19T06:16:01.327Z,1008.17
2017-11-19T06:17:52.030Z,1008.14
2017-11-19T06:18:54.809Z,1008.12
2017-11-19T06:20:48.384Z,1008.17
2017-11-19T06:21:48.362Z,1008.19
2017-11-19T06:23:41.040Z,1008.24
2017-11-19T06:24:41.968Z,1008.22
2017-11-19T06:26:35.488Z,1008.19
2017-11-19T06:27:35.513Z,1008.15
2017-11-19T06:29:28.188Z,1008.20
2017-11-19T06:30:29.002Z,1008.22
2017-11-19T06:32:22.602Z,1008.29
2017-11-19T06:33:22.588Z,1008.27
2017-11-19T06:35:15.368Z,1008.31
2017-11-19T06:36:16.152Z,1008.35
2017-11-19T06:38:07.500Z,1008.26
2017-11-19T06:39:09.708Z,1008.27
2017-11-19T06:41:03.847Z,1008.26
2017-11-19T06:42:03.297Z,1008.22
2017-11-19T06:43:56.736Z,1008.18
2017-11-19T06:44:56.853Z,1008.20
2017-11-19T06:46:49.520Z,1008.18
2017-11-19T06:47:50.404Z,1008.21
2017-11-19T06:49:43.940Z,1008.19
2017-11-19T06:50:43.942Z,1008.21
2017-11-19T06:52:36.415Z,1008.26
2017-11-19T06:53:37.534Z,1008.27
2017-11-19T06:55:31.048Z,1008.26
2017-11-19T06:56:30.107Z,1008.32
2017-11-19T06:58:23.530Z,1008.32
2017-11-19T06:59:22.973Z,1008.32
2017-11-19T07:01:18.172Z,1008.29
2017-11-19T07:02:18.206Z,1008.29
2017-11-19T07:04:10.810Z,1008.33
2017-11-19T07:05:11.718Z,1008.30
2017-11-19T07:07:05.328Z,1008.42
2017-11-19T07:08:05.321Z,1008.40
2017-11-19T07:09:57.920Z,1008.42
2017-11-19T07:10:58.862Z,1008.44
2017-11-19T07:12:50.197Z,1008.44
2017-11-19T07:13:52.391Z,1008.52
2017-11-19T07:15:44.993Z,1008.52
2017-11-19T07:16:45.975Z,1008.47
2017-11-19T07:18:39.492Z,1008.47
2017-11-19T07:19:39.512Z,1008.44
2017-11-19T07:21:32.171Z,1008.44
2017-11-19T07:22:33.091Z,1008.42
2017-11-19T07:24:26.678Z,1008.43
2017-11-19T07:25:26.651Z,1008.39
2017-11-19T07:27:19.239Z,1008.40
2017-11-19T07:28:19.273Z,1008.42
2017-11-19T07:30:11.574Z,1008.42
2017-11-19T07:31:13.729Z,1008.46
2017-11-19T07:33:06.370Z,1008.48
2017-11-19T07:34:07.321Z,1008.55
2017-11-19T07:36:00.762Z,1008.50
2017-11-19T07:37:00.868Z,1008.51
2017-11-19T07:38:53.513Z,1008.54
2017-11-19T07:39:55.283Z,1008.53
2017-11-19T07:41:48.011Z,1008.52
2017-11-19T07:42:47.950Z,1008.47
2017-11-19T07:44:40.492Z,1008.43
2017-11-19T07:45:41.501Z,1008.40
2017-11-19T07:47:32.831Z,1008.48
2017-11-19T07:48:35.129Z,1008.49
2017-11-19T07:50:27.713Z,1008.47
2017-11-19T07:51:28.632Z,1008.48
2017-11-19T07:53:22.187Z,1008.48
2017-11-19T07:54:22.258Z,1008.49
2017-11-19T07:56:14.613Z,1008.55
2017-11-19T07:57:15.777Z,1008.52
2017-11-19T07:59:09.360Z,1008.59
2017-11-19T08:00:09.284Z,1008.56
2017-11-19T08:02:02.018Z,1008.60
2017-11-19T08:03:02.846Z,1008.61
2017-11-19T08:04:54.183Z,1008.64
2017-11-19T08:05:56.434Z,1008.58
2017-11-19T08:07:49.016Z,1008.59
2017-11-19T08:08:50.000Z,1008.67
2017-11-19T08:10:43.595Z,1008.71
2017-11-19T08:11:43.557Z,1008.67
2017-11-19T08:13:36.178Z,1008.70
2017-11-19T08:14:37.063Z,1008.72
2017-11-19T08:16:30.518Z,1008.76
2017-11-19T08:17:31.526Z,1008.78
2017-11-19T08:19:23.276Z,1008.85
2017-11-19T08:20:24.222Z,1008.82
2017-11-19T08:22:17.558Z,1008.90
2017-11-19T08:23:18.677Z,1008.85
2017-11-19T08:25:10.236Z,1008.88
2017-11-19T08:26:11.332Z,1008.93
2017-11-19T08:28:04.824Z,1008.87
2017-11-19T08:29:04.893Z,1008.87
2017-11-19T08:30:57.016Z,1008.89
2017-11-19T08:31:58.446Z,1008.91
2017-11-19T08:33:51.102Z,1008.97
2017-11-19T08:36:05.365Z,1008.96
2017-11-19T08:37:02.733Z,1008.97
2017-11-19T08:38:58.087Z,1008.96
2017-11-19T08:39:58.996Z,1008.95
2017-11-19T08:41:52.510Z,1008.93
2017-11-19T08:42:52.540Z,1008.94
2017-11-19T08:44:43.908Z,1008.99
2017-11-19T08:45:46.034Z,1008.92
2017-11-19T08:47:39.526Z,1008.95
2017-11-19T08:48:39.588Z,1008.97
2017-11-19T08:50:32.165Z,1008.96
2017-11-19T08:51:33.168Z,1009.01
2017-11-19T08:53:26.749Z,1008.97
2017-11-19T08:54:24.040Z,1008.96
2017-11-19T08:56:19.459Z,1009.02
2017-11-19T08:57:20.303Z,1009.02
2017-11-19T08:59:13.791Z,1009.02
2017-11-19T09:00:13.859Z,1008.94
2017-11-19T09:02:06.462Z,1008.97
2017-11-19T09:03:07.421Z,1008.97
2017-11-19T09:05:00.971Z,1009.00
2017-11-19T09:06:00.937Z,1008.92
2017-11-19T09:07:53.602Z,1008.95
2017-11-19T09:08:54.566Z,1008.97
2017-11-19T09:10:48.006Z,1008.89
2017-11-19T09:11:48.033Z,1008.91
2017-11-19T09:13:42.220Z,1008.92
2017-11-19T09:14:41.607Z,1008.89
2017-11-19T09:16:35.200Z,1008.89
2017-11-19T09:17:35.192Z,1008.98
2017-11-19T09:19:27.760Z,1009.01
2017-11-19T09:20:28.759Z,1009.04
2017-11-19T09:22:22.194Z,1009.07
2017-11-19T09:23:21.314Z,1009.10
2017-11-19T09:25:14.950Z,1009.14
2017-11-19T09:26:15.863Z,1009.11
2017-11-19T09:28:09.429Z,1009.15
2017-11-19T09:29:09.394Z,1009.11
2017-11-19T09:31:02.313Z,1009.20
2017-11-19T09:32:03.000Z,1009.15
2017-11-19T09:33:56.524Z,1009.17
2017-11-19T09:34:56.493Z,1009.17
2017-11-19T09:36:48.953Z,1009.20
2017-11-19T09:37:50.051Z,1009.19
2017-11-19T09:46:05.351Z,1009.17
2017-11-19T09:46:52.739Z,1009.25
2017-11-19T09:48:45.372Z,1009.29
2017-11-19T09:49:43.652Z,1009.26
2017-11-19T09:51:38.928Z,1009.26
2017-11-19T09:52:39.888Z,1009.28
2017-11-19T09:54:33.206Z,1009.20
2017-11-19T09:55:33.445Z,1009.35
2017-11-19T09:57:26.071Z,1009.32
2017-11-19T09:58:24.989Z,1009.27
2017-11-19T10:00:20.544Z,1009.26
2017-11-19T10:01:20.509Z,1009.31
2017-11-19T10:03:13.197Z,1009.33
2017-11-19T10:04:14.221Z,1009.38
2017-11-19T10:06:07.619Z,1009.34
2017-11-19T10:07:05.009Z,1009.32
2017-11-19T10:09:00.455Z,1009.32
2017-11-19T10:10:02.127Z,1009.33
2017-11-19T10:11:54.752Z,1009.28
2017-11-19T10:12:54.756Z,1009.33
2017-11-19T10:14:47.399Z,1009.33
2017-11-19T10:15:48.352Z,1009.36
2017-11-19T10:17:41.860Z,1009.37
2017-11-19T10:18:41.855Z,1009.32
2017-11-19T10:20:34.458Z,1009.32
2017-11-19T10:21:35.445Z,1009.37
2017-11-19T10:23:28.987Z,1009.33
2017-11-19T10:24:26.354Z,1009.38
2017-11-19T10:26:21.657Z,1009.34
2017-11-19T10:27:22.562Z,1009.35
2017-11-19T10:29:16.101Z,1009.30
2017-11-19T10:30:16.228Z,1009.29
2017-11-19T10:32:08.596Z,1009.26
2017-11-19T10:33:09.640Z,1009.37
2017-11-19T10:35:03.223Z,1009.34
2017-11-19T10:36:03.257Z,1009.23
2017-11-19T10:37:55.835Z,1009.33
2017-11-19T10:38:56.819Z,1009.38
2017-11-19T10:40:50.373Z,1009.47
2017-11-19T10:41:48.351Z,1009.41
2017-11-19T10:43:42.828Z,1009.36
2017-11-19T10:44:43.890Z,1009.40
2017-11-19T10:46:36.625Z,1009.31
2017-11-19T10:47:37.462Z,1009.32
2017-11-19T10:49:30.048Z,1009.29
2017-11-19T10:50:31.051Z,1009.30
2017-11-19T10:52:23.612Z,1009.41
2017-11-19T10:53:24.560Z,1009.38
2017-11-19T10:55:18.120Z,1009.37
2017-11-19T10:56:18.164Z,1009.44
2017-11-19T10:58:10.667Z,1009.46
2017-11-19T10:59:11.696Z,1009.49
2017-11-19T11:01:02.378Z,1009.46
2017-11-19T11:02:04.317Z,1009.45
2017-11-19T11:03:59.430Z,1009.47
2017-11-19T11:04:58.811Z,1009.44
2017-11-19T11:06:50.272Z,1009.42
2017-11-19T11:07:52.381Z,1009.50
2017-11-19T11:09:44.937Z,1009.45
2017-11-19T11:10:45.923Z,1009.46
2017-11-19T11:12:39.490Z,1009.36
2017-11-19T11:13:39.481Z,1009.39
2017-11-19T11:15:32.154Z,1009.51
2017-11-19T11:16:33.042Z,1009.47
2017-11-19T11:18:26.595Z,1009.43
2017-11-19T11:19:26.633Z,1009.45
2017-11-19T11:21:19.275Z,1009.45
2017-11-19T11:22:20.208Z,1009.46
2017-11-19T11:24:13.715Z,1009.53
2017-11-19T11:25:13.759Z,1009.55
2017-11-19T11:27:06.308Z,1009.55
2017-11-19T11:28:07.273Z,1009.54
2017-11-19T11:30:00.772Z,1009.54
2017-11-19T11:31:00.987Z,1009.61
2017-11-19T11:32:54.988Z,1009.57
2017-11-19T11:33:54.034Z,1009.58
2017-11-19T11:35:47.831Z,1009.64
2017-11-19T11:36:48.033Z,1009.58
2017-11-19T11:38:40.677Z,1009.62
2017-11-19T11:39:41.525Z,1009.62
2017-11-19T11:41:35.655Z,1009.51
2017-11-19T11:42:35.214Z,1009.52
2017-11-19T11:44:28.691Z,1009.55
2017-11-19T11:45:28.641Z,1009.52
2017-11-19T11:47:21.047Z,1009.48
2017-11-19T11:48:22.222Z,1009.48
2017-11-19T11:50:15.884Z,1009.48
2017-11-19T11:51:15.798Z,1009.43
2017-11-19T11:53:08.468Z,1009.44
2017-11-19T11:54:09.360Z,1009.47
2017-11-19T11:56:02.911Z,1009.40
2017-11-19T11:57:02.872Z,1009.44
2017-11-19T11:58:56.203Z,1009.29
2017-11-19T11:59:56.422Z,1009.48
2017-11-19T12:01:49.090Z,1009.44
2017-11-19T12:02:50.010Z,1009.43
2017-11-19T12:04:43.086Z,1009.41
2017-11-19T12:05:43.542Z,1009.47
2017-11-19T12:07:37.152Z,1009.41
2017-11-19T12:08:37.134Z,1009.46
2017-11-19T12:10:29.769Z,1009.43
2017-11-19T12:11:30.647Z,1009.51
2017-11-19T12:13:24.206Z,1009.51
2017-11-19T12:14:24.215Z,1009.43
2017-11-19T12:16:15.620Z,1009.51
2017-11-19T12:17:17.816Z,1009.54
2017-11-19T12:19:11.337Z,1009.51
2017-11-19T12:20:11.373Z,1009.50
2017-11-19T12:22:03.987Z,1009.36
2017-11-19T12:23:04.878Z,1009.49
2017-11-19T12:24:58.315Z,1009.52
2017-11-19T12:25:58.432Z,1009.54
2017-11-19T12:27:51.109Z,1009.52
2017-11-19T12:28:52.000Z,1009.50
2017-11-19T12:30:45.544Z,1009.49
2017-11-19T12:31:45.548Z,1009.52
2017-11-19T12:33:36.293Z,1009.59
2017-11-19T12:34:39.124Z,1009.55
2017-11-19T12:36:32.691Z,1009.60
2017-11-19T12:37:32.715Z,1009.62
2017-11-19T12:39:25.366Z,1009.57
2017-11-19T12:40:26.245Z,1009.58
2017-11-19T12:42:19.813Z,1009.60
2017-11-19T12:43:19.822Z,1009.61
2017-11-19T12:45:12.372Z,1009.62
2017-11-19T12:46:13.349Z,1009.61
2017-11-19T12:48:06.870Z,1009.72
2017-11-19T12:49:06.913Z,1009.73
2017-11-19T12:50:57.649Z,1009.66
2017-11-19T12:52:00.522Z,1009.63
2017-11-19T12:53:53.174Z,1009.57
2017-11-19T12:54:54.050Z,1009.53
2017-11-19T12:56:47.613Z,1009.56
2017-11-19T12:57:47.581Z,1009.53
2017-11-19T12:59:40.235Z,1009.54
2017-11-19T13:00:41.141Z,1009.55
2017-11-19T13:02:34.772Z,1009.51
2017-11-19T13:03:32.823Z,1009.40
2017-11-19T13:05:27.343Z,1009.46
2017-11-19T13:06:28.252Z,1009.57
2017-11-19T13:08:21.808Z,1009.53
2017-11-19T13:09:20.319Z,1009.58
2017-11-19T13:11:14.320Z,1009.55
2017-11-19T13:12:15.401Z,1009.65
2017-11-19T13:14:08.967Z,1009.60
2017-11-19T13:15:08.929Z,1009.62
2017-11-19T13:17:01.529Z,1009.61
2017-11-19T13:18:02.495Z,1009.60
2017-11-19T13:19:56.071Z,1009.63
2017-11-19T13:20:54.117Z,1009.55
2017-11-19T13:22:49.195Z,1009.58
2017-11-19T13:23:49.600Z,1009.51
2017-11-19T13:25:43.168Z,1009.54
2017-11-19T13:26:43.162Z,1009.54
2017-11-19T13:28:35.796Z,1009.59
2017-11-19T13:30:50.154Z,1009.64
2017-11-19T13:31:50.132Z,1009.62
2017-11-19T13:33:40.923Z,1009.63
2017-11-19T13:34:43.685Z,1009.64
2017-11-19T13:36:37.308Z,1009.67
2017-11-19T13:37:37.273Z,1009.56
2017-11-19T13:39:29.814Z,1009.62
2017-11-19T13:40:30.840Z,1009.64
2017-11-19T13:42:24.312Z,1009.63
2017-11-19T13:43:24.469Z,1009.75
2017-11-19T13:45:16.892Z,1009.74
2017-11-19T13:46:17.947Z,1009.72
2017-11-19T13:48:11.286Z,1009.78
2017-11-19T13:49:11.531Z,1009.76
2017-11-19T13:51:04.196Z,1009.84
2017-11-19T13:52:05.060Z,1009.77
2017-11-19T13:53:57.640Z,1009.80
2017-11-19T13:54:58.612Z,1009.77
2017-11-19T13:56:52.274Z,1009.83
2017-11-19T13:57:52.169Z,1009.87
2017-11-19T13:59:44.663Z,1009.83
2017-11-19T14:00:45.927Z,1009.82
2017-11-19T14:02:39.289Z,1009.78
2017-11-19T14:03:39.331Z,1009.82
2017-11-19T14:05:32.213Z,1009.87
2017-11-19T14:06:32.857Z,1009.90
2017-11-19T14:08:26.423Z,1009.88
2017-11-19T14:09:26.403Z,1009.86
2017-11-19T14:11:19.085Z,1009.89
2017-11-19T14:12:19.968Z,1009.94
2017-11-19T14:14:13.529Z,1009.98
2017-11-19T14:15:13.547Z,1009.99
2017-11-19T14:17:06.187Z,1009.92
2017-11-19T14:18:07.070Z,1010.03
2017-11-19T14:20:00.664Z,1010.09
2017-11-19T14:22:11.746Z,1010.04
2017-11-19T14:23:14.039Z,1010.10
2017-11-19T14:25:07.637Z,1010.11
2017-11-19T14:26:07.648Z,1010.09
2017-11-19T14:28:00.427Z,1010.08
2017-11-19T14:29:01.158Z,1010.13
2017-11-19T14:30:54.702Z,1010.17
2017-11-19T14:31:54.725Z,1010.07
2017-11-19T14:33:47.370Z,1010.07
2017-11-19T14:36:01.720Z,1010.07
2017-11-19T14:37:01.684Z,1010.16
2017-11-19T14:38:54.474Z,1010.16
2017-11-19T14:39:55.234Z,1010.07
2017-11-19T14:41:48.675Z,1010.17
2017-11-19T14:42:46.864Z,1010.15
2017-11-19T14:44:41.289Z,1010.15
2017-11-19T14:45:42.389Z,1010.12
2017-11-19T14:47:34.841Z,1010.14
2017-11-19T14:48:35.915Z,1010.12
2017-11-19T14:50:29.462Z,1010.13
2017-11-19T14:51:29.517Z,1010.13
2017-11-19T14:53:22.152Z,1010.14
2017-11-19T14:54:23.049Z,1010.14
2017-11-19T14:56:16.573Z,1010.18
2017-11-19T14:57:16.574Z,1010.10
2017-11-19T14:59:09.219Z,1010.15
2017-11-19T15:00:08.269Z,1010.15
2017-11-19T15:02:02.850Z,1010.10
2017-11-19T15:03:03.688Z,1010.17
2017-11-19T15:04:57.246Z,1010.23
2017-11-19T15:05:57.248Z,1010.20
2017-11-19T15:07:51.807Z,1010.16
2017-11-19T15:08:50.843Z,1010.31
2017-11-19T15:10:44.148Z,1010.22
2017-11-19T15:11:44.369Z,1010.25
2017-11-19T15:13:36.920Z,1010.30
2017-11-19T15:14:37.068Z,1010.30
2017-11-19T15:16:30.601Z,1010.31
2017-11-19T15:17:28.848Z,1010.36
2017-11-19T15:19:25.063Z,1010.35
2017-11-19T15:20:25.064Z,1010.32
2017-11-19T15:22:17.514Z,1010.29
2017-11-19T15:23:18.637Z,1010.24
2017-11-19T15:25:12.016Z,1010.36
2017-11-19T15:26:12.154Z,1010.36
2017-11-19T15:34:12.613Z,1010.47
2017-11-19T15:35:13.637Z,1010.50
2017-11-19T15:37:07.076Z,1010.49
2017-11-19T15:38:07.047Z,1010.54
2017-11-19T15:39:59.459Z,1010.49
2017-11-19T15:41:00.596Z,1010.50
2017-11-19T15:42:52.798Z,1010.48
2017-11-19T15:43:54.157Z,1010.56
2017-11-19T15:45:46.669Z,1010.55
2017-11-19T15:46:47.742Z,1010.52
2017-11-19T15:48:41.271Z,1010.52
2017-11-19T15:49:41.319Z,1010.55
2017-11-19T15:51:35.547Z,1010.59
2017-11-19T15:52:33.831Z,1010.50
2017-11-19T15:54:28.384Z,1010.53
2017-11-19T15:55:28.374Z,1010.52
2017-11-19T15:57:20.883Z,1010.51
2017-11-19T15:58:21.940Z,1010.51
2017-11-19T16:00:12.671Z,1010.49
2017-11-19T16:01:15.536Z,1010.49
2017-11-19T16:03:09.090Z,1010.54
2017-11-19T16:04:09.047Z,1010.55
2017-11-19T16:06:01.535Z,1010.59
2017-11-19T16:07:02.648Z,1010.63
2017-11-19T16:08:56.157Z,1010.63
2017-11-19T16:09:56.183Z,1010.69
2017-11-19T16:11:48.815Z,1010.69
2017-11-19T16:12:47.965Z,1010.68
2017-11-19T16:14:43.373Z,1010.71
2017-11-19T16:15:43.354Z,1010.73
2017-11-19T16:17:35.869Z,1010.80
2017-11-19T16:18:36.928Z,1010.79
2017-11-19T16:20:30.399Z,1010.83
2017-11-19T16:21:30.453Z,1010.81
2017-11-19T16:23:22.890Z,1010.89
2017-11-19T16:24:23.952Z,1010.82
2017-11-19T16:26:17.520Z,1010.91
2017-11-19T16:27:17.519Z,1010.92
2017-11-19T16:29:10.191Z,1010.95
2017-11-19T16:30:09.159Z,1010.96
2017-11-19T16:32:04.504Z,1010.94
2017-11-19T16:33:04.663Z,1011.00
2017-11-19T16:34:57.245Z,1010.94
2017-11-19T16:35:58.182Z,1010.95
2017-11-19T16:37:51.456Z,1010.98
2017-11-19T16:38:51.724Z,1010.97
2017-11-19T16:40:44.361Z,1010.99
2017-11-19T16:41:45.293Z,1010.96
2017-11-19T16:43:38.790Z,1010.97
2017-11-19T16:44:38.852Z,1010.98
2017-11-19T16:46:32.983Z,1011.00
2017-11-19T16:47:30.504Z,1011.01
2017-11-19T16:49:25.944Z,1010.99
2017-11-19T16:50:25.998Z,1010.99
2017-11-19T16:52:18.612Z,1011.03
2017-11-19T16:53:19.567Z,1011.04
2017-11-19T16:55:12.965Z,1011.05
2017-11-19T16:56:13.109Z,1011.06
2017-11-19T16:58:04.360Z,1011.13
2017-11-19T16:59:06.654Z,1011.13
2017-11-19T17:01:00.112Z,1011.23
2017-11-19T17:02:00.233Z,1011.19
2017-11-19T17:03:52.416Z,1011.20
2017-11-19T17:04:51.106Z,1011.26
2017-11-19T17:06:46.363Z,1011.27
2017-11-19T17:07:47.293Z,1011.25
2017-11-19T17:09:40.904Z,1011.34
2017-11-19T17:10:40.862Z,1011.27
2017-11-19T17:12:33.556Z,1011.28
2017-11-19T17:13:34.424Z,1011.35
2017-11-19T17:15:27.965Z,1011.31
2017-11-19T17:16:28.132Z,1011.24
2017-11-19T17:18:21.036Z,1011.29
2017-11-19T17:19:21.511Z,1011.31
2017-11-19T17:21:15.066Z,1011.37
2017-11-19T17:22:12.446Z,1011.39
2017-11-19T17:24:07.786Z,1011.45
2017-11-19T17:25:08.650Z,1011.44
2017-11-19T17:27:02.225Z,1011.45
2017-11-19T17:28:02.189Z,1011.48
2017-11-19T17:29:54.807Z,1011.50
2017-11-19T17:30:55.748Z,1011.50
2017-11-19T17:32:49.211Z,1011.51
2017-11-19T17:33:49.308Z,1011.54
2017-11-19T17:35:42.000Z,1011.50
2017-11-19T17:36:42.848Z,1011.53
2017-11-19T17:38:36.406Z,1011.57
2017-11-19T17:39:35.923Z,1011.61
2017-11-19T17:41:29.088Z,1011.60
2017-11-19T17:42:29.962Z,1011.62
2017-11-19T17:44:22.775Z,1011.66
2017-11-19T17:45:23.538Z,1011.71
2017-11-19T17:47:16.194Z,1011.70
2017-11-19T17:48:17.121Z,1011.67
2017-11-19T17:50:10.554Z,1011.65
2017-11-19T17:51:10.646Z,1011.61
2017-11-19T17:53:03.325Z,1011.63
2017-11-19T17:54:04.198Z,1011.70
2017-11-19T17:55:57.794Z,1011.64
2017-11-19T17:56:57.796Z,1011.71
2017-11-19T17:58:50.423Z,1011.71
2017-11-19T17:59:51.353Z,1011.72
2017-11-19T18:01:44.872Z,1011.74
2017-11-19T18:02:44.860Z,1011.76
2017-11-19T18:04:36.372Z,1011.75
2017-11-19T18:05:38.426Z,1011.76
2017-11-19T18:07:31.991Z,1011.79
2017-11-19T18:08:31.983Z,1011.82
2017-11-19T18:10:24.656Z,1011.85
2017-11-19T18:11:25.536Z,1011.82
2017-11-19T18:13:19.106Z,1011.87
2017-11-19T18:14:19.139Z,1011.95
2017-11-19T18:16:11.809Z,1011.96
2017-11-19T18:17:12.745Z,1012.00
2017-11-19T18:19:06.200Z,1012.02
2017-11-19T18:20:06.226Z,1012.04
2017-11-19T18:21:59.010Z,1011.98
2017-11-19T18:22:59.760Z,1012.06
2017-11-19T18:24:53.201Z,1012.07